createdAt,value
2023-04-12T00:00:34.213Z,6.33
2023-04-12T00:01:34.205Z,6.33
2023-04-12T00:02:34.300Z,6.35
2023-04-12T00:03:34.686Z,6.35
2023-04-12T00:04:34.414Z,6.31
2023-04-12T00:05:34.176Z,6.31
2023-04-12T00:06:34.189Z,6.35
2023-04-12T00:07:34.142Z,6.33
2023-04-12T00:08:34.129Z,6.28
2023-04-12T00:09:34.135Z,6.31
2023-04-12T00:10:34.121Z,6.35
2023-04-12T00:11:34.104Z,6.35
2023-04-12T00:12:34.114Z,6.38
2023-04-12T00:13:34.101Z,6.38
2023-04-12T00:14:34.076Z,6.38
2023-04-12T00:15:34.092Z,6.38
2023-04-12T00:16:34.050Z,6.39
2023-04-12T00:17:34.105Z,6.38
2023-04-12T00:18:34.031Z,6.38
2023-04-12T00:19:34.031Z,6.39
2023-04-12T00:20:34.015Z,6.39
2023-04-12T00:21:34.008Z,6.39
2023-04-12T00:22:34.018Z,6.39
2023-04-12T00:23:34.060Z,6.41
2023-04-12T00:24:33.999Z,6.42
2023-04-12T00:25:34.008Z,6.38
2023-04-12T00:26:33.967Z,6.36
2023-04-12T00:27:33.962Z,6.30
2023-04-12T00:28:33.947Z,6.30
2023-04-12T00:29:33.971Z,6.27
2023-04-12T00:30:33.912Z,6.24
2023-04-12T00:31:33.955Z,6.26
2023-04-12T00:32:33.941Z,6.26
2023-04-12T00:33:33.909Z,6.26
2023-04-12T00:34:34.265Z,6.17
2023-04-12T00:35:33.905Z,6.09
2023-04-12T00:36:33.873Z,6.02
2023-04-12T00:37:33.861Z,5.98
2023-04-12T00:38:33.846Z,5.91
2023-04-12T00:39:33.845Z,5.84
2023-04-12T00:40:33.845Z,5.79
2023-04-12T00:41:33.811Z,5.76
2023-04-12T00:42:33.810Z,5.76
2023-04-12T00:43:33.814Z,5.79
2023-04-12T00:44:33.788Z,5.82
2023-04-12T00:45:33.828Z,5.84
2023-04-12T00:46:33.807Z,5.87
2023-04-12T00:47:33.832Z,5.87
2023-04-12T00:48:33.755Z,5.87
2023-04-12T00:49:33.741Z,5.86
2023-04-12T00:50:33.766Z,5.84
2023-04-12T00:51:33.741Z,5.86
2023-04-12T00:52:33.708Z,5.87
2023-04-12T00:53:33.693Z,5.87
2023-04-12T00:54:33.695Z,5.87
2023-04-12T00:55:33.731Z,5.86
2023-04-12T00:56:33.701Z,5.79
2023-04-12T00:57:33.654Z,5.68
2023-04-12T00:58:33.655Z,5.61
2023-04-12T00:59:33.652Z,5.48
2023-04-12T01:00:33.670Z,5.41
2023-04-12T01:01:33.654Z,5.33
2023-04-12T01:02:33.818Z,5.30
2023-04-12T01:03:33.665Z,5.28
2023-04-12T01:04:33.595Z,5.26
2023-04-12T01:05:33.583Z,5.30
2023-04-12T01:06:33.588Z,5.33
2023-04-12T01:07:33.582Z,5.33
2023-04-12T01:08:33.586Z,5.35
2023-04-12T01:09:33.533Z,5.32
2023-04-12T01:10:33.556Z,5.30
2023-04-12T01:11:33.513Z,5.30
2023-04-12T01:12:33.495Z,5.30
2023-04-12T01:13:33.535Z,5.28
2023-04-12T01:14:33.497Z,5.29
2023-04-12T01:15:33.484Z,5.29
2023-04-12T01:16:33.601Z,5.33
2023-04-12T01:17:33.455Z,5.35
2023-04-12T01:18:33.462Z,5.39
2023-04-12T01:19:33.441Z,5.41
2023-04-12T01:20:33.404Z,5.43
2023-04-12T01:21:33.408Z,5.43
2023-04-12T01:22:33.396Z,5.43
2023-04-12T01:23:33.404Z,5.43
2023-04-12T01:24:33.434Z,5.43
2023-04-12T01:25:33.378Z,5.47
2023-04-12T01:26:33.532Z,5.47
2023-04-12T01:27:33.350Z,5.50
2023-04-12T01:28:33.347Z,5.54
2023-04-12T01:29:33.330Z,5.53
2023-04-12T01:30:33.358Z,5.61
2023-04-12T01:31:33.357Z,5.64
2023-04-12T01:32:33.324Z,5.66
2023-04-12T01:33:33.272Z,5.69
2023-04-12T01:34:33.292Z,5.66
2023-04-12T01:35:35.124Z,5.69
2023-04-12T01:36:33.284Z,5.69
2023-04-12T01:37:33.254Z,5.71
2023-04-12T01:38:33.249Z,5.72
2023-04-12T01:39:33.234Z,5.76
2023-04-12T01:40:33.224Z,5.76
2023-04-12T01:41:33.249Z,5.82
2023-04-12T01:42:33.224Z,5.83
2023-04-12T01:43:33.188Z,5.84
2023-04-12T01:44:33.169Z,5.86
2023-04-12T01:45:33.214Z,5.84
2023-04-12T01:46:33.168Z,5.83
2023-04-12T01:47:33.164Z,5.79
2023-04-12T01:48:33.145Z,5.72
2023-04-12T01:49:33.144Z,5.66
2023-04-12T01:50:33.141Z,5.65
2023-04-12T01:51:33.126Z,5.61
2023-04-12T01:52:33.120Z,5.56
2023-04-12T01:53:33.091Z,5.50
2023-04-12T01:54:33.087Z,5.44
2023-04-12T01:55:33.072Z,5.38
2023-04-12T01:56:33.053Z,5.35
2023-04-12T01:57:33.043Z,5.33
2023-04-12T01:58:33.062Z,5.32
2023-04-12T01:59:33.017Z,5.30
2023-04-12T02:00:33.016Z,5.26
2023-04-12T02:01:33.071Z,5.23
2023-04-12T02:02:33.158Z,5.18
2023-04-12T02:03:33.128Z,5.12
2023-04-12T02:04:33.000Z,5.12
2023-04-12T02:05:32.978Z,5.10
2023-04-12T02:06:32.965Z,5.10
2023-04-12T02:07:32.968Z,5.10
2023-04-12T02:08:32.945Z,5.10
2023-04-12T02:09:32.964Z,5.12
2023-04-12T02:10:32.912Z,5.15
2023-04-12T02:11:32.903Z,5.20
2023-04-12T02:12:32.915Z,5.23
2023-04-12T02:13:32.897Z,5.26
2023-04-12T02:14:32.896Z,5.26
2023-04-12T02:15:32.900Z,5.26
2023-04-12T02:16:32.904Z,5.28
2023-04-12T02:17:32.921Z,5.28
2023-04-12T02:18:32.858Z,5.32
2023-04-12T02:19:32.889Z,5.33
2023-04-12T02:20:32.845Z,5.35
2023-04-12T02:21:32.798Z,5.36
2023-04-12T02:22:32.791Z,5.39
2023-04-12T02:23:32.783Z,5.43
2023-04-12T02:24:32.779Z,5.46
2023-04-12T02:25:32.788Z,5.48
2023-04-12T02:26:32.767Z,5.50
2023-04-12T02:27:32.783Z,5.54
2023-04-12T02:28:32.750Z,5.61
2023-04-12T02:29:32.743Z,5.62
2023-04-12T02:30:32.754Z,5.65
2023-04-12T02:31:32.727Z,5.68
2023-04-12T02:32:32.771Z,5.69
2023-04-12T02:33:32.694Z,5.72
2023-04-12T02:34:32.687Z,5.71
2023-04-12T02:35:32.710Z,5.72
2023-04-12T02:36:32.900Z,5.73
2023-04-12T02:37:32.639Z,5.75
2023-04-12T02:38:32.637Z,5.76
2023-04-12T02:39:32.624Z,5.71
2023-04-12T02:40:32.635Z,5.62
2023-04-12T02:41:32.653Z,5.57
2023-04-12T02:42:32.641Z,5.50
2023-04-12T02:43:32.604Z,5.47
2023-04-12T02:44:32.594Z,5.44
2023-04-12T02:45:32.558Z,5.41
2023-04-12T02:46:32.610Z,5.41
2023-04-12T02:47:32.619Z,5.43
2023-04-12T02:48:32.571Z,5.39
2023-04-12T02:49:32.524Z,5.41
2023-04-12T02:50:32.510Z,5.44
2023-04-12T02:51:32.498Z,5.47
2023-04-12T02:52:32.510Z,5.51
2023-04-12T02:53:32.508Z,5.54
2023-04-12T02:54:32.484Z,5.54
2023-04-12T02:55:32.493Z,5.61
2023-04-12T02:56:32.469Z,5.59
2023-04-12T02:57:32.465Z,5.56
2023-04-12T02:58:32.455Z,5.57
2023-04-12T02:59:32.459Z,5.54
2023-04-12T03:00:32.420Z,5.56
2023-04-12T03:01:32.552Z,5.57
2023-04-12T03:02:32.573Z,5.61
2023-04-12T03:03:32.573Z,5.62
2023-04-12T03:04:32.572Z,5.66
2023-04-12T03:05:32.388Z,5.66
2023-04-12T03:06:32.361Z,5.69
2023-04-12T03:07:32.333Z,5.71
2023-04-12T03:08:32.347Z,5.72
2023-04-12T03:09:32.346Z,5.73
2023-04-12T03:10:32.375Z,5.73
2023-04-12T03:11:32.323Z,5.73
2023-04-12T03:12:32.320Z,5.75
2023-04-12T03:13:32.299Z,5.76
2023-04-12T03:14:32.291Z,5.73
2023-04-12T03:15:32.306Z,5.75
2023-04-12T03:16:32.296Z,5.73
2023-04-12T03:17:32.356Z,5.73
2023-04-12T03:18:32.229Z,5.69
2023-04-12T03:19:32.213Z,5.68
2023-04-12T03:20:32.223Z,5.65
2023-04-12T03:21:32.214Z,5.65
2023-04-12T03:22:32.235Z,5.61
2023-04-12T03:23:32.184Z,5.53
2023-04-12T03:24:32.206Z,5.51
2023-04-12T03:25:32.180Z,5.51
2023-04-12T03:26:32.162Z,5.51
2023-04-12T03:27:32.176Z,5.53
2023-04-12T03:28:32.160Z,5.51
2023-04-12T03:29:32.149Z,5.51
2023-04-12T03:30:32.133Z,5.54
2023-04-12T03:31:32.150Z,5.57
2023-04-12T03:32:32.124Z,5.61
2023-04-12T03:33:32.110Z,5.62
2023-04-12T03:34:32.160Z,5.68
2023-04-12T03:35:32.117Z,5.68
2023-04-12T03:36:32.064Z,5.72
2023-04-12T03:37:32.108Z,5.75
2023-04-12T03:38:32.353Z,5.76
2023-04-12T03:39:32.012Z,5.79
2023-04-12T03:40:32.048Z,5.80
2023-04-12T03:41:32.012Z,5.82
2023-04-12T03:42:33.864Z,5.83
2023-04-12T03:43:31.999Z,5.86
2023-04-12T03:44:32.024Z,5.84
2023-04-12T03:45:31.972Z,5.83
2023-04-12T03:46:32.005Z,5.80
2023-04-12T03:47:32.002Z,5.71
2023-04-12T03:48:31.956Z,5.66
2023-04-12T03:49:31.933Z,5.59
2023-04-12T03:50:31.944Z,5.56
2023-04-12T03:51:31.918Z,5.53
2023-04-12T03:52:31.915Z,5.51
2023-04-12T03:53:31.919Z,5.46
2023-04-12T03:54:31.884Z,5.41
2023-04-12T03:55:31.959Z,5.39
2023-04-12T03:56:31.888Z,5.44
2023-04-12T03:57:31.833Z,5.46
2023-04-12T03:58:31.853Z,5.47
2023-04-12T03:59:31.830Z,5.48
2023-04-12T04:00:31.848Z,5.51
2023-04-12T04:01:31.833Z,5.51
2023-04-12T04:02:32.136Z,5.54
2023-04-12T04:03:31.918Z,5.53
2023-04-12T04:04:31.888Z,5.57
2023-04-12T04:05:31.771Z,5.57
2023-04-12T04:06:31.773Z,5.59
2023-04-12T04:07:31.769Z,5.64
2023-04-12T04:08:31.734Z,5.64
2023-04-12T04:09:31.729Z,5.66
2023-04-12T04:10:31.733Z,5.69
2023-04-12T04:11:31.703Z,5.69
2023-04-12T04:12:31.734Z,5.73
2023-04-12T04:13:31.685Z,5.73
2023-04-12T04:14:31.686Z,5.76
2023-04-12T04:15:31.687Z,5.75
2023-04-12T04:16:31.746Z,5.72
2023-04-12T04:17:31.667Z,5.71
2023-04-12T04:18:31.675Z,5.66
2023-04-12T04:19:31.641Z,5.65
2023-04-12T04:20:31.615Z,5.61
2023-04-12T04:21:31.597Z,5.54
2023-04-12T04:22:31.602Z,5.47
2023-04-12T04:23:31.615Z,5.48
2023-04-12T04:24:31.606Z,5.44
2023-04-12T04:25:31.572Z,5.43
2023-04-12T04:26:31.563Z,5.44
2023-04-12T04:27:31.666Z,5.47
2023-04-12T04:28:32.422Z,5.44
2023-04-12T04:29:31.580Z,5.44
2023-04-12T04:30:31.530Z,5.48
2023-04-12T04:31:31.555Z,5.50
2023-04-12T04:32:31.614Z,5.50
2023-04-12T04:33:31.494Z,5.50
2023-04-12T04:34:31.534Z,5.51
2023-04-12T04:35:31.559Z,5.51
2023-04-12T04:36:31.456Z,5.56
2023-04-12T04:37:31.439Z,5.56
2023-04-12T04:38:31.437Z,5.54
2023-04-12T04:39:31.430Z,5.56
2023-04-12T04:40:31.457Z,5.56
2023-04-12T04:41:31.409Z,5.56
2023-04-12T04:42:31.406Z,5.54
2023-04-12T04:43:31.417Z,5.56
2023-04-12T04:44:31.406Z,5.59
2023-04-12T04:45:31.428Z,5.59
2023-04-12T04:46:31.415Z,5.59
2023-04-12T04:47:31.373Z,5.61
2023-04-12T04:48:31.345Z,5.64
2023-04-12T04:49:31.320Z,5.65
2023-04-12T04:50:31.334Z,5.68
2023-04-12T04:51:31.303Z,5.72
2023-04-12T04:52:31.330Z,5.75
2023-04-12T04:53:31.299Z,5.76
2023-04-12T04:54:31.308Z,5.79
2023-04-12T04:55:31.273Z,5.80
2023-04-12T04:56:31.278Z,5.82
2023-04-12T04:57:31.273Z,5.83
2023-04-12T04:58:31.252Z,5.83
2023-04-12T04:59:31.237Z,5.83
2023-04-12T05:00:31.221Z,5.83
2023-04-12T05:01:31.222Z,5.82
2023-04-12T05:02:31.300Z,5.76
2023-04-12T05:03:31.309Z,5.73
2023-04-12T05:04:31.211Z,5.71
2023-04-12T05:05:31.180Z,5.71
2023-04-12T05:06:31.159Z,5.71
2023-04-12T05:07:31.190Z,5.72
2023-04-12T05:08:31.184Z,5.75
2023-04-12T05:09:31.137Z,5.75
2023-04-12T05:10:31.168Z,5.76
2023-04-12T05:11:31.106Z,5.82
2023-04-12T05:12:31.106Z,5.83
2023-04-12T05:13:31.158Z,5.86
2023-04-12T05:14:44.482Z,5.87
2023-04-12T05:15:31.087Z,5.89
2023-04-12T05:16:31.103Z,5.93
2023-04-12T05:17:31.093Z,5.94
2023-04-12T05:18:31.044Z,5.97
2023-04-12T05:19:31.042Z,6.01
2023-04-12T05:20:31.027Z,6.02
2023-04-12T05:21:31.025Z,6.04
2023-04-12T05:22:31.004Z,6.05
2023-04-12T05:23:31.001Z,6.05
2023-04-12T05:24:31.000Z,6.04
2023-04-12T05:25:30.987Z,6.02
2023-04-12T05:26:30.950Z,6.01
2023-04-12T05:27:30.952Z,5.99
2023-04-12T05:28:30.984Z,6.01
2023-04-12T05:29:30.941Z,6.01
2023-04-12T05:30:30.923Z,6.02
2023-04-12T05:31:30.928Z,6.02
2023-04-12T05:32:31.037Z,6.04
2023-04-12T05:33:32.849Z,6.05
2023-04-12T05:34:30.910Z,6.05
2023-04-12T05:35:30.929Z,6.07
2023-04-12T05:36:30.864Z,6.07
2023-04-12T05:37:30.854Z,6.04
2023-04-12T05:38:30.858Z,5.98
2023-04-12T05:39:30.862Z,5.97
2023-04-12T05:40:30.809Z,5.98
2023-04-12T05:41:30.810Z,5.97
2023-04-12T05:42:30.788Z,5.98
2023-04-12T05:43:30.800Z,5.99
2023-04-12T05:44:30.781Z,6.02
2023-04-12T05:45:30.805Z,6.04
2023-04-12T05:46:30.873Z,6.05
2023-04-12T05:47:30.762Z,6.07
2023-04-12T05:48:30.746Z,6.12
2023-04-12T05:49:30.741Z,6.14
2023-04-12T05:50:30.746Z,6.16
2023-04-12T05:51:40.381Z,6.19
2023-04-12T05:52:30.704Z,6.20
2023-04-12T05:53:30.683Z,6.22
2023-04-12T05:54:30.690Z,6.26
2023-04-12T05:55:30.688Z,6.28
2023-04-12T05:56:30.668Z,6.30
2023-04-12T05:57:30.666Z,6.35
2023-04-12T05:58:30.648Z,6.36
2023-04-12T05:59:30.645Z,6.38
2023-04-12T06:00:30.650Z,6.41
2023-04-12T06:01:32.246Z,6.44
2023-04-12T06:02:30.758Z,6.48
2023-04-12T06:03:30.848Z,6.51
2023-04-12T06:04:46.632Z,6.54
2023-04-12T06:05:30.648Z,6.57
2023-04-12T06:06:30.596Z,6.60
2023-04-12T06:07:30.552Z,6.63
2023-04-12T06:08:30.544Z,6.66
2023-04-12T06:09:30.537Z,6.66
2023-04-12T06:10:30.511Z,6.62
2023-04-12T06:11:30.547Z,6.62
2023-04-12T06:12:30.520Z,6.63
2023-04-12T06:13:30.510Z,6.66
2023-04-12T06:14:30.482Z,6.67
2023-04-12T06:15:30.488Z,6.69
2023-04-12T06:16:30.521Z,6.67
2023-04-12T06:17:30.545Z,6.69
2023-04-12T06:18:30.452Z,6.69
2023-04-12T06:19:30.436Z,6.69
2023-04-12T06:20:30.434Z,6.70
2023-04-12T06:21:30.411Z,6.74
2023-04-12T06:22:30.437Z,6.72
2023-04-12T06:23:30.455Z,6.74
2023-04-12T06:24:30.381Z,6.74
2023-04-12T06:25:30.389Z,6.75
2023-04-12T06:26:38.903Z,6.79
2023-04-12T06:27:30.367Z,6.79
2023-04-12T06:28:30.365Z,6.82
2023-04-12T06:29:30.325Z,6.84
2023-04-12T06:30:30.525Z,6.88
2023-04-12T06:31:30.356Z,6.88
2023-04-12T06:32:30.344Z,6.92
2023-04-12T06:33:30.296Z,6.95
2023-04-12T06:34:30.315Z,6.97
2023-04-12T06:35:30.318Z,7.02
2023-04-12T06:36:30.267Z,7.06
2023-04-12T06:37:30.260Z,7.10
2023-04-12T06:38:30.237Z,7.11
2023-04-12T06:39:30.232Z,7.13
2023-04-12T06:40:30.296Z,7.14
2023-04-12T06:41:30.210Z,7.15
2023-04-12T06:42:30.204Z,7.15
2023-04-12T06:43:30.190Z,7.17
2023-04-12T06:44:30.179Z,7.21
2023-04-12T06:45:30.196Z,7.23
2023-04-12T06:46:30.203Z,7.24
2023-04-12T06:47:30.150Z,7.25
2023-04-12T06:48:30.126Z,7.25
2023-04-12T06:49:30.132Z,7.29
2023-04-12T06:50:30.110Z,7.32
2023-04-12T06:51:30.119Z,7.32
2023-04-12T06:52:30.099Z,7.32
2023-04-12T06:53:30.086Z,7.32
2023-04-12T06:54:30.076Z,7.35
2023-04-12T06:55:30.087Z,7.35
2023-04-12T06:56:30.033Z,7.36
2023-04-12T06:57:30.051Z,7.38
2023-04-12T06:58:30.021Z,7.38
2023-04-12T06:59:30.088Z,7.43
2023-04-12T07:00:30.092Z,7.43
2023-04-12T07:01:30.095Z,7.47
2023-04-12T07:02:30.208Z,7.48
2023-04-12T07:03:30.095Z,7.50
2023-04-12T07:04:29.996Z,7.53
2023-04-12T07:05:29.968Z,7.56
2023-04-12T07:06:30.037Z,7.58
2023-04-12T07:07:29.959Z,7.60
2023-04-12T07:08:30.331Z,7.61
2023-04-12T07:09:29.910Z,7.61
2023-04-12T07:10:29.908Z,7.60
2023-04-12T07:11:29.904Z,7.63
2023-04-12T07:12:29.928Z,7.61
2023-04-12T07:13:29.883Z,7.61
2023-04-12T07:14:29.906Z,7.63
2023-04-12T07:15:29.866Z,7.63
2023-04-12T07:16:29.875Z,7.63
2023-04-12T07:17:29.856Z,7.69
2023-04-12T07:18:30.024Z,7.67
2023-04-12T07:19:29.857Z,7.70
2023-04-12T07:20:29.828Z,7.69
2023-04-12T07:21:29.814Z,7.70
2023-04-12T07:22:29.808Z,7.72
2023-04-12T07:23:29.795Z,7.72
2023-04-12T07:24:29.796Z,7.72
2023-04-12T07:25:29.780Z,7.72
2023-04-12T07:26:29.740Z,7.73
2023-04-12T07:27:29.755Z,7.73
2023-04-12T07:28:29.726Z,7.73
2023-04-12T07:29:29.722Z,7.72
2023-04-12T07:30:29.735Z,7.72
2023-04-12T07:31:29.692Z,7.72
2023-04-12T07:32:29.768Z,7.72
2023-04-12T07:33:29.811Z,7.73
2023-04-12T07:34:29.804Z,7.75
2023-04-12T07:35:29.676Z,7.73
2023-04-12T07:36:29.679Z,7.75
2023-04-12T07:37:29.653Z,7.76
2023-04-12T07:38:29.631Z,7.76
2023-04-12T07:39:29.700Z,7.76
2023-04-12T07:40:29.610Z,7.77
2023-04-12T07:41:29.918Z,7.79
2023-04-12T07:42:29.601Z,7.77
2023-04-12T07:43:29.583Z,7.80
2023-04-12T07:44:29.569Z,7.77
2023-04-12T07:45:29.582Z,7.77
2023-04-12T07:46:29.571Z,7.79
2023-04-12T07:47:29.590Z,7.80
2023-04-12T07:48:29.563Z,7.79
2023-04-12T07:49:29.535Z,7.80
2023-04-12T07:50:29.512Z,7.80
2023-04-12T07:51:29.509Z,7.80
2023-04-12T07:52:29.494Z,7.80
2023-04-12T07:53:29.506Z,7.79
2023-04-12T07:54:29.476Z,7.83
2023-04-12T07:55:29.467Z,7.83
2023-04-12T07:56:29.452Z,7.82
2023-04-12T07:57:29.444Z,7.82
2023-04-12T07:58:29.646Z,7.83
2023-04-12T07:59:29.415Z,7.82
2023-04-12T08:00:29.421Z,7.83
2023-04-12T08:01:29.403Z,7.83
2023-04-12T08:02:29.477Z,7.82
2023-04-12T08:03:29.494Z,7.83
2023-04-12T08:04:29.485Z,7.87
2023-04-12T08:05:29.391Z,7.85
2023-04-12T08:06:31.678Z,7.87
2023-04-12T08:07:29.345Z,7.88
2023-04-12T08:08:29.312Z,7.88
2023-04-12T08:09:29.373Z,7.90
2023-04-12T08:10:29.320Z,7.91
2023-04-12T08:11:29.290Z,7.93
2023-04-12T08:12:29.299Z,7.93
2023-04-12T08:13:29.272Z,7.93
2023-04-12T08:14:29.265Z,7.94
2023-04-12T08:15:29.337Z,7.95
2023-04-12T08:16:29.255Z,7.94
2023-04-12T08:17:29.256Z,7.97
2023-04-12T08:18:29.238Z,7.95
2023-04-12T08:19:29.235Z,7.97
2023-04-12T08:20:29.288Z,7.97
2023-04-12T08:21:29.225Z,7.98
2023-04-12T08:22:29.205Z,7.98
2023-04-12T08:23:29.164Z,7.98
2023-04-12T08:24:29.156Z,7.97
2023-04-12T08:25:29.155Z,8.00
2023-04-12T08:26:29.184Z,8.00
2023-04-12T08:27:29.140Z,7.98
2023-04-12T08:28:29.134Z,8.00
2023-04-12T08:29:29.119Z,8.01
2023-04-12T08:30:29.118Z,8.01
2023-04-12T08:31:29.139Z,8.03
2023-04-12T08:32:29.151Z,8.05
2023-04-12T08:33:29.087Z,8.03
2023-04-12T08:34:29.047Z,8.00
2023-04-12T08:35:29.055Z,7.95
2023-04-12T08:36:29.038Z,7.97
2023-04-12T08:37:29.053Z,7.98
2023-04-12T08:38:44.197Z,7.98
2023-04-12T08:39:29.034Z,7.98
2023-04-12T08:40:29.005Z,7.98
2023-04-12T08:41:29.009Z,8.01
2023-04-12T08:42:29.023Z,8.01
2023-04-12T08:43:29.012Z,8.01
2023-04-12T08:44:28.966Z,8.03
2023-04-12T08:45:28.968Z,8.05
2023-04-12T08:46:29.003Z,8.03
2023-04-12T08:47:28.978Z,8.06
2023-04-12T08:48:28.945Z,8.06
2023-04-12T08:49:28.922Z,8.09
2023-04-12T08:50:28.901Z,8.08
2023-04-12T08:51:28.894Z,8.09
2023-04-12T08:52:28.896Z,8.10
2023-04-12T08:53:28.921Z,8.09
2023-04-12T08:54:28.884Z,8.10
2023-04-12T08:55:28.866Z,8.09
2023-04-12T08:56:28.853Z,8.09
2023-04-12T08:57:30.619Z,8.09
2023-04-12T08:58:28.828Z,8.08
2023-04-12T08:59:28.870Z,8.09
2023-04-12T09:00:28.841Z,8.10
2023-04-12T09:01:28.870Z,8.10
2023-04-12T09:02:28.967Z,8.12
2023-04-12T09:03:30.715Z,8.10
2023-04-12T09:04:28.797Z,8.12
2023-04-12T09:05:28.925Z,8.13
2023-04-12T09:06:28.743Z,8.12
2023-04-12T09:07:28.764Z,8.13
2023-04-12T09:08:28.713Z,8.15
2023-04-12T09:09:28.713Z,8.15
2023-04-12T09:10:28.733Z,8.16
2023-04-12T09:11:28.732Z,8.16
2023-04-12T09:12:28.673Z,8.19
2023-04-12T09:13:28.673Z,8.20
2023-04-12T09:14:28.672Z,8.23
2023-04-12T09:15:28.660Z,8.24
2023-04-12T09:16:28.714Z,8.26
2023-04-12T09:17:28.687Z,8.24
2023-04-12T09:18:28.633Z,8.27
2023-04-12T09:19:28.630Z,8.26
2023-04-12T09:20:28.617Z,8.27
2023-04-12T09:21:28.601Z,8.28
2023-04-12T09:22:28.609Z,8.30
2023-04-12T09:23:28.589Z,8.30
2023-04-12T09:24:28.569Z,8.31
2023-04-12T09:25:28.561Z,8.33
2023-04-12T09:26:28.551Z,8.31
2023-04-12T09:27:28.575Z,8.33
2023-04-12T09:28:28.535Z,8.33
2023-04-12T09:29:28.503Z,8.36
2023-04-12T09:30:28.496Z,8.36
2023-04-12T09:31:28.539Z,8.37
2023-04-12T09:32:28.511Z,8.38
2023-04-12T09:33:28.519Z,8.41
2023-04-12T09:34:28.471Z,8.41
2023-04-12T09:35:28.454Z,8.44
2023-04-12T09:36:28.484Z,8.44
2023-04-12T09:37:28.435Z,8.44
2023-04-12T09:38:28.456Z,8.46
2023-04-12T09:39:28.423Z,8.46
2023-04-12T09:40:28.415Z,8.46
2023-04-12T09:41:28.382Z,8.44
2023-04-12T09:42:34.106Z,8.41
2023-04-12T09:43:28.373Z,8.42
2023-04-12T09:44:28.374Z,8.41
2023-04-12T09:45:28.340Z,8.41
2023-04-12T09:46:28.378Z,8.41
2023-04-12T09:47:28.339Z,8.41
2023-04-12T09:48:28.326Z,8.44
2023-04-12T09:49:28.720Z,8.41
2023-04-12T09:50:28.300Z,8.41
2023-04-12T09:51:28.397Z,8.38
2023-04-12T09:52:28.426Z,8.42
2023-04-12T09:53:28.261Z,8.42
2023-04-12T09:54:28.293Z,8.48
2023-04-12T09:55:28.302Z,8.51
2023-04-12T09:56:28.266Z,8.52
2023-04-12T09:57:28.237Z,8.56
2023-04-12T09:58:30.537Z,8.61
2023-04-12T09:59:28.211Z,8.61
2023-04-12T10:00:28.225Z,8.66
2023-04-12T10:01:28.306Z,8.67
2023-04-12T10:02:28.473Z,8.67
2023-04-12T10:03:28.297Z,8.69
2023-04-12T10:04:28.323Z,8.67
2023-04-12T10:05:28.578Z,8.69
2023-04-12T10:06:28.209Z,8.69
2023-04-12T10:07:28.149Z,8.67
2023-04-12T10:08:28.109Z,8.67
2023-04-12T10:09:28.122Z,8.69
2023-04-12T10:10:28.109Z,8.69
2023-04-12T10:11:28.107Z,8.69
2023-04-12T10:12:28.129Z,8.69
2023-04-12T10:13:28.076Z,8.71
2023-04-12T10:14:28.076Z,8.69
2023-04-12T10:15:28.060Z,8.67
2023-04-12T10:16:28.094Z,8.69
2023-04-12T10:17:28.037Z,8.69
2023-04-12T10:18:28.045Z,8.69
2023-04-12T10:19:28.017Z,8.70
2023-04-12T10:20:29.482Z,8.70
2023-04-12T10:21:27.983Z,8.73
2023-04-12T10:22:27.963Z,8.71
2023-04-12T10:23:28.009Z,8.71
2023-04-12T10:24:27.950Z,8.71
2023-04-12T10:25:27.927Z,8.69
2023-04-12T10:26:27.932Z,8.69
2023-04-12T10:27:27.912Z,8.67
2023-04-12T10:28:27.937Z,8.69
2023-04-12T10:29:27.949Z,8.67
2023-04-12T10:30:27.914Z,8.67
2023-04-12T10:31:27.909Z,8.69
2023-04-12T10:32:27.919Z,8.70
2023-04-12T10:33:27.908Z,8.71
2023-04-12T10:34:27.912Z,8.71
2023-04-12T10:35:27.886Z,8.74
2023-04-12T10:36:27.858Z,8.74
2023-04-12T10:37:27.825Z,8.78
2023-04-12T10:38:27.821Z,8.79
2023-04-12T10:39:27.835Z,8.79
2023-04-12T10:40:27.852Z,8.82
2023-04-12T10:41:27.845Z,8.84
2023-04-12T10:42:27.814Z,8.84
2023-04-12T10:43:27.805Z,8.85
2023-04-12T10:44:27.751Z,8.85
2023-04-12T10:45:27.793Z,8.84
2023-04-12T10:46:27.858Z,8.84
2023-04-12T10:47:27.868Z,8.85
2023-04-12T10:48:27.803Z,8.85
2023-04-12T10:49:27.712Z,8.87
2023-04-12T10:50:27.726Z,8.87
2023-04-12T10:51:27.694Z,8.85
2023-04-12T10:52:27.704Z,8.89
2023-04-12T10:53:27.681Z,8.91
2023-04-12T10:54:27.713Z,8.91
2023-04-12T10:55:27.673Z,8.92
2023-04-12T10:56:29.065Z,8.92
2023-04-12T10:57:27.617Z,8.92
2023-04-12T10:58:27.652Z,8.95
2023-04-12T10:59:41.039Z,8.97
2023-04-12T11:00:27.691Z,8.99
2023-04-12T11:01:27.756Z,9.00
2023-04-12T11:02:27.744Z,9.00
2023-04-12T11:03:27.724Z,9.02
2023-04-12T11:04:27.635Z,9.02
2023-04-12T11:05:27.622Z,9.02
2023-04-12T11:06:28.099Z,8.99
2023-04-12T11:07:27.537Z,9.00
2023-04-12T11:08:27.532Z,8.99
2023-04-12T11:09:27.523Z,8.99
2023-04-12T11:10:27.518Z,8.95
2023-04-12T11:11:27.546Z,8.95
2023-04-12T11:12:27.475Z,8.97
2023-04-12T11:13:27.447Z,8.97
2023-04-12T11:14:27.473Z,8.97
2023-04-12T11:15:27.451Z,8.95
2023-04-12T11:16:27.584Z,8.94
2023-04-12T11:17:27.687Z,8.91
2023-04-12T11:18:27.433Z,8.91
2023-04-12T11:19:27.451Z,8.91
2023-04-12T11:20:27.444Z,8.94
2023-04-12T11:21:27.397Z,8.94
2023-04-12T11:22:27.517Z,8.92
2023-04-12T11:23:27.407Z,8.91
2023-04-12T11:24:27.377Z,8.91
2023-04-12T11:25:27.348Z,8.91
2023-04-12T11:26:27.334Z,8.89
2023-04-12T11:27:27.366Z,8.91
2023-04-12T11:28:30.372Z,8.91
2023-04-12T11:29:27.311Z,8.91
2023-04-12T11:30:27.306Z,8.91
2023-04-12T11:31:27.294Z,8.92
2023-04-12T11:32:27.411Z,8.92
2023-04-12T11:33:27.305Z,8.95
2023-04-12T11:34:27.269Z,8.97
2023-04-12T11:35:27.252Z,8.99
2023-04-12T11:36:27.242Z,9.00
2023-04-12T11:37:27.456Z,9.00
2023-04-12T11:38:27.248Z,9.00
2023-04-12T11:39:27.212Z,9.03
2023-04-12T11:40:27.198Z,9.04
2023-04-12T11:41:27.182Z,9.06
2023-04-12T11:42:27.177Z,9.08
2023-04-12T11:43:27.148Z,9.08
2023-04-12T11:44:27.183Z,9.08
2023-04-12T11:45:27.133Z,9.11
2023-04-12T11:46:27.253Z,9.10
2023-04-12T11:47:27.174Z,9.11
2023-04-12T11:48:27.130Z,9.11
2023-04-12T11:49:27.099Z,9.14
2023-04-12T11:50:27.127Z,9.16
2023-04-12T11:51:28.163Z,9.16
2023-04-12T11:52:27.082Z,9.18
2023-04-12T11:53:27.068Z,9.18
2023-04-12T11:54:27.088Z,9.22
2023-04-12T11:55:27.279Z,9.21
2023-04-12T11:56:27.017Z,9.21
2023-04-12T11:57:27.021Z,9.21
2023-04-12T11:58:26.995Z,9.23
2023-04-12T11:59:26.996Z,9.25
2023-04-12T12:00:26.988Z,9.26
2023-04-12T12:01:26.999Z,9.28
2023-04-12T12:02:29.897Z,9.29
2023-04-12T12:03:27.244Z,9.31
2023-04-12T12:04:27.054Z,9.32
2023-04-12T12:05:27.237Z,9.36
2023-04-12T12:06:27.444Z,9.37
2023-04-12T12:07:27.024Z,9.40
2023-04-12T12:08:26.924Z,9.41
2023-04-12T12:09:26.903Z,9.44
2023-04-12T12:10:43.708Z,9.46
2023-04-12T12:11:26.897Z,9.47
2023-04-12T12:12:26.896Z,9.48
2023-04-12T12:13:26.841Z,9.48
2023-04-12T12:14:26.846Z,9.51
2023-04-12T12:15:26.843Z,9.55
2023-04-12T12:16:26.862Z,9.55
2023-04-12T12:17:26.867Z,9.58
2023-04-12T12:18:26.832Z,9.59
2023-04-12T12:19:26.804Z,9.61
2023-04-12T12:20:26.790Z,9.61
2023-04-12T12:21:26.771Z,9.64
2023-04-12T12:22:26.782Z,9.65
2023-04-12T12:23:26.765Z,9.66
2023-04-12T12:24:26.748Z,9.68
2023-04-12T12:25:26.729Z,9.68
2023-04-12T12:26:26.726Z,9.68
2023-04-12T12:27:26.722Z,9.69
2023-04-12T12:28:26.752Z,9.72
2023-04-12T12:29:26.696Z,9.69
2023-04-12T12:30:26.690Z,9.72
2023-04-12T12:31:26.748Z,9.74
2023-04-12T12:32:26.691Z,9.76
2023-04-12T12:33:38.822Z,9.79
2023-04-12T12:34:26.690Z,9.79
2023-04-12T12:35:26.643Z,9.79
2023-04-12T12:36:26.622Z,9.79
2023-04-12T12:37:26.625Z,9.79
2023-04-12T12:38:32.145Z,9.82
2023-04-12T12:39:26.631Z,9.80
2023-04-12T12:40:26.585Z,9.82
2023-04-12T12:41:26.573Z,9.82
2023-04-12T12:42:26.565Z,9.83
2023-04-12T12:43:26.563Z,9.83
2023-04-12T12:44:26.565Z,9.84
2023-04-12T12:45:26.604Z,9.86
2023-04-12T12:46:34.044Z,9.86
2023-04-12T12:47:26.618Z,9.89
2023-04-12T12:48:26.536Z,9.87
2023-04-12T12:49:26.501Z,9.89
2023-04-12T12:50:26.518Z,9.91
2023-04-12T12:51:26.461Z,9.92
2023-04-12T12:52:26.467Z,9.92
2023-04-12T12:53:26.479Z,9.97
2023-04-12T12:55:26.435Z,9.98
2023-04-12T12:56:26.431Z,10.01
2023-04-12T12:57:26.431Z,10.02
2023-04-12T12:58:26.480Z,10.02
2023-04-12T12:59:26.425Z,10.02
2023-04-12T13:00:26.384Z,10.05
2023-04-12T13:01:26.395Z,10.05
2023-04-12T13:02:26.467Z,10.07
2023-04-12T13:03:26.642Z,10.05
2023-04-12T13:04:26.440Z,10.07
2023-04-12T13:05:26.328Z,10.05
2023-04-12T13:06:26.315Z,10.07
2023-04-12T13:07:26.299Z,10.05
2023-04-12T13:08:26.319Z,10.09
2023-04-12T13:09:26.300Z,10.09
2023-04-12T13:10:26.312Z,10.10
2023-04-12T13:11:26.277Z,10.10
2023-04-12T13:12:26.275Z,10.12
2023-04-12T13:13:26.258Z,10.13
2023-04-12T13:14:26.270Z,10.15
2023-04-12T13:15:26.258Z,10.16
2023-04-12T13:16:26.918Z,10.15
2023-04-12T13:17:26.232Z,10.16
2023-04-12T13:18:26.192Z,10.17